Time;durP1;ratioP1;P1;durP2;ratioP2;P2;SDS_P1;SDS_P2;PMS_P1;PMS_P2;Temp;Humidity;BMP_temperature;BMP_pressure;BME280_temperature;BME280_humidity;BME280_pressure;Samples;Min_cycle;Max_cycle;Signal;HPM_P1;HPM_P2
2022/05/27 00:01:30;;;;;;;;;;;17.60;74.70;;;;;;5005786;28;19917;-73
2022/05/27 00:03:57;;;;;;;;;;;17.60;74.70;;;;;;5042118;28;19932;-73
2022/05/27 00:06:22;;;;;;;;;;;17.60;74.60;;;;;;5027503;28;20000;-73
2022/05/27 00:08:48;;;;;;;;;;;17.60;74.60;;;;;;5031442;28;20007;-72
2022/05/27 00:11:14;;;;;;;;;;;17.50;74.80;;;;;;5028950;28;20463;-72
2022/05/27 00:13:40;;;;;;;;;;;17.50;74.90;;;;;;5040776;28;19923;-72
2022/05/27 00:16:06;;;;;;;;;;;17.50;75.80;;;;;;5048624;28;19966;-72
2022/05/27 00:18:32;;;;;;;;;;;17.50;75.10;;;;;;5046345;28;19920;-73
2022/05/27 00:20:58;;;;;;;;;;;17.40;75.00;;;;;;5037468;28;19947;-73
2022/05/27 00:23:24;;;;;;;;;;;17.50;75.10;;;;;;5033272;28;19935;-73
2022/05/27 00:25:49;;;;;;;;;;;17.40;75.00;;;;;;5046306;28;20453;-73
2022/05/27 00:28:15;;;;;;;;;;;17.40;75.10;;;;;;5032209;28;20632;-73
2022/05/27 00:30:40;;;;;;;;;;;17.40;75.10;;;;;;5048983;28;19919;-72
2022/05/27 00:33:08;;;;;;;;;;;17.40;75.30;;;;;;5026911;28;20419;-73
2022/05/27 00:35:33;;;;;;;;;;;17.40;75.50;;;;;;5027905;28;19944;-73
2022/05/27 00:37:59;;;;;;;;;;;17.40;75.30;;;;;;5022307;28;19916;-72
2022/05/27 00:40:26;;;;;;;;;;;17.40;75.40;;;;;;5027590;28;20331;-73
2022/05/27 00:42:51;;;;;;;;;;;17.30;75.60;;;;;;5028881;28;19920;-73
2022/05/27 00:45:22;;;;;;;;;;;17.30;75.60;;;;;;5040336;28;19917;-73
2022/05/27 00:47:50;;;;;;;;;;;17.30;75.60;;;;;;5048889;28;20568;-73
2022/05/27 00:50:16;;;;;;;;;;;17.20;75.80;;;;;;5045964;28;19921;-73
2022/05/27 00:52:43;;;;;;;;;;;17.30;75.80;;;;;;5041249;28;19921;-73
2022/05/27 00:55:11;;;;;;;;;;;17.30;75.90;;;;;;5039059;28;19913;-72
2022/05/27 00:57:42;;;;;;;;;;;17.20;75.60;;;;;;5047562;28;19917;-73
2022/05/27 01:00:12;;;;;;;;;;;17.20;75.90;;;;;;5044857;28;20014;-73
2022/05/27 01:02:38;;;;;;;;;;;17.20;76.20;;;;;;5044674;28;20368;-73
2022/05/27 01:05:05;;;;;;;;;;;17.20;76.10;;;;;;5029776;28;19919;-73
2022/05/27 01:07:31;;;;;;;;;;;17.20;76.20;;;;;;5047549;28;20007;-72
2022/05/27 01:09:57;;;;;;;;;;;17.10;76.30;;;;;;5032417;28;19947;-72
2022/05/27 01:12:22;;;;;;;;;;;17.10;76.60;;;;;;5047216;28;19989;-72
2022/05/27 01:15:03;;;;;;;;;;;17.10;76.90;;;;;;5042005;28;19913;-73
2022/05/27 01:17:31;;;;;;;;;;;17.00;76.80;;;;;;5028119;28;19917;-72
2022/05/27 01:22:41;;;;;;;;;;;17.00;76.70;;;;;;5047693;28;19923;-72
2022/05/27 01:25:13;;;;;;;;;;;17.00;76.70;;;;;;5044846;28;19916;-72
2022/05/27 01:27:38;;;;;;;;;;;17.00;76.80;;;;;;5040337;28;19935;-73
2022/05/27 01:30:19;;;;;;;;;;;17.00;76.90;;;;;;5046242;28;19913;-72
2022/05/27 01:32:47;;;;;;;;;;;17.00;76.90;;;;;;5067517;28;19916;-72
2022/05/27 01:35:13;;;;;;;;;;;17.00;77.00;;;;;;5065047;28;19923;-73
2022/05/27 01:37:41;;;;;;;;;;;17.00;77.10;;;;;;5037880;28;19913;-73
2022/05/27 01:40:14;;;;;;;;;;;17.00;77.00;;;;;;5041872;28;19913;-73
2022/05/27 01:42:42;;;;;;;;;;;16.90;77.50;;;;;;5063855;28;20441;-72
2022/05/27 01:45:12;;;;;;;;;;;16.90;77.20;;;;;;5067267;28;19923;-72
2022/05/27 01:47:43;;;;;;;;;;;16.90;77.40;;;;;;5064305;28;19909;-72
2022/05/27 01:50:11;;;;;;;;;;;16.90;77.30;;;;;;5067125;28;19913;-72
2022/05/27 01:52:39;;;;;;;;;;;16.90;77.30;;;;;;5058181;28;19944;-72
2022/05/27 01:55:18;;;;;;;;;;;16.90;77.50;;;;;;5046889;28;19920;-72
2022/05/27 01:58:22;;;;;;;;;;;16.90;77.40;;;;;;5058965;28;20008;-72
2022/05/27 02:00:49;;;;;;;;;;;16.90;77.50;;;;;;4964874;28;19966;-72
2022/05/27 02:03:26;;;;;;;;;;;16.80;77.90;;;;;;4963019;28;20064;-72
2022/05/27 02:05:56;;;;;;;;;;;16.80;78.00;;;;;;5020094;28;20558;-72
2022/05/27 02:08:22;;;;;;;;;;;16.80;78.30;;;;;;5055903;28;19927;-72
2022/05/27 02:10:48;;;;;;;;;;;16.80;78.40;;;;;;5046435;28;20121;-72
2022/05/27 02:13:21;;;;;;;;;;;16.80;78.40;;;;;;5053189;28;20533;-72
2022/05/27 02:15:49;;;;;;;;;;;16.80;78.60;;;;;;5026355;28;19917;-72
2022/05/27 02:18:17;;;;;;;;;;;16.70;78.40;;;;;;5048514;28;20009;-72
2022/05/27 02:20:47;;;;;;;;;;;16.70;78.50;;;;;;5065445;28;19921;-72
2022/05/27 02:23:18;;;;;;;;;;;16.70;78.60;;;;;;5063263;28;20334;-72
2022/05/27 02:25:45;;;;;;;;;;;16.70;78.80;;;;;;5064890;28;19961;-72
2022/05/27 02:28:10;;;;;;;;;;;16.70;78.80;;;;;;5051945;28;20660;-72
2022/05/27 02:30:39;;;;;;;;;;;16.70;79.10;;;;;;5065839;28;19919;-72
2022/05/27 02:35:59;;;;;;;;;;;16.60;78.90;;;;;;5065441;28;19923;-72
2022/05/27 02:38:26;;;;;;;;;;;16.60;78.80;;;;;;5055130;28;19986;-72
2022/05/27 02:40:51;;;;;;;;;;;16.60;78.90;;;;;;5045860;28;19920;-73
2022/05/27 02:43:17;;;;;;;;;;;16.60;79.30;;;;;;5047571;28;20500;-72
2022/05/27 02:45:54;;;;;;;;;;;16.60;79.20;;;;;;5065440;28;19923;-72
2022/05/27 02:48:19;;;;;;;;;;;16.60;79.30;;;;;;5063292;28;19920;-72
2022/05/27 02:50:58;;;;;;;;;;;16.60;79.40;;;;;;5065595;28;20859;-72
2022/05/27 02:53:29;;;;;;;;;;;16.50;79.30;;;;;;5042552;28;19942;-72
2022/05/27 02:55:55;;;;;;;;;;;16.50;79.50;;;;;;5052056;28;20543;-72
2022/05/27 02:58:21;;;;;;;;;;;16.50;79.40;;;;;;5043559;28;19920;-72
2022/05/27 03:00:46;;;;;;;;;;;16.50;79.50;;;;;;5062192;28;20588;-72
2022/05/27 03:03:12;;;;;;;;;;;16.50;79.50;;;;;;5064728;28;19912;-73
2022/05/27 03:05:56;;;;;;;;;;;16.50;79.60;;;;;;5061932;28;19920;-72
2022/05/27 03:08:27;;;;;;;;;;;16.50;79.60;;;;;;5056809;28;19919;-72
2022/05/27 03:10:52;;;;;;;;;;;16.50;79.60;;;;;;5023635;28;20616;-72
2022/05/27 03:13:36;;;;;;;;;;;16.40;80.40;;;;;;5053617;28;19913;-72
2022/05/27 03:16:20;;;;;;;;;;;16.40;80.40;;;;;;5062672;28;19975;-72
2022/05/27 03:18:53;;;;;;;;;;;16.40;80.40;;;;;;5065462;28;19920;-71
2022/05/27 03:21:21;;;;;;;;;;;16.40;80.10;;;;;;5061804;28;19926;-72
2022/05/27 03:24:16;;;;;;;;;;;16.40;80.20;;;;;;5065408;28;19912;-72
2022/05/27 03:26:42;;;;;;;;;;;16.40;80.20;;;;;;4961621;28;19926;-71
2022/05/27 03:29:13;;;;;;;;;;;16.40;80.30;;;;;;5041576;28;19917;-71
2022/05/27 03:31:46;;;;;;;;;;;16.40;80.30;;;;;;5060061;28;19938;-71
2022/05/27 03:34:15;;;;;;;;;;;16.40;80.20;;;;;;5065351;28;19920;-71
2022/05/27 03:36:49;;;;;;;;;;;16.40;80.20;;;;;;5061204;28;20870;-71
2022/05/27 03:39:29;;;;;;;;;;;16.30;80.40;;;;;;5022461;28;20465;-71
2022/05/27 03:41:58;;;;;;;;;;;16.30;80.70;;;;;;5058303;28;19938;-71
2022/05/27 03:44:27;;;;;;;;;;;16.30;80.70;;;;;;5066505;28;19923;-71
2022/05/27 03:46:53;;;;;;;;;;;16.30;81.20;;;;;;5066037;28;19978;-71
2022/05/27 03:49:18;;;;;;;;;;;16.30;81.00;;;;;;5069616;28;20445;-71
2022/05/27 03:51:50;;;;;;;;;;;16.30;80.90;;;;;;5066807;28;19915;-72
2022/05/27 03:54:16;;;;;;;;;;;16.30;81.60;;;;;;5049894;28;19971;-73
2022/05/27 03:56:42;;;;;;;;;;;16.30;81.00;;;;;;5055294;28;20112;-71
2022/05/27 03:59:09;;;;;;;;;;;16.20;80.90;;;;;;5069062;28;20473;-71
2022/05/27 04:01:35;;;;;;;;;;;16.20;81.30;;;;;;5064257;28;20488;-72
2022/05/27 04:04:03;;;;;;;;;;;16.20;81.30;;;;;;5068878;28;19916;-74
2022/05/27 04:06:29;;;;;;;;;;;16.20;81.70;;;;;;5064265;28;19918;-75
2022/05/27 04:08:55;;;;;;;;;;;16.20;81.50;;;;;;5056639;28;20015;-74
2022/05/27 04:11:20;;;;;;;;;;;16.20;81.50;;;;;;5048219;28;19916;-74
2022/05/27 04:13:46;;;;;;;;;;;16.20;81.60;;;;;;5068957;28;20406;-72
2022/05/27 04:16:12;;;;;;;;;;;16.20;81.60;;;;;;5068703;28;19913;-72
2022/05/27 04:18:37;;;;;;;;;;;16.20;81.40;;;;;;5049089;28;19912;-72
2022/05/27 04:21:03;;;;;;;;;;;16.20;81.60;;;;;;5063116;28;19921;-71
2022/05/27 04:23:28;;;;;;;;;;;16.20;81.70;;;;;;5064998;28;19943;-72
2022/05/27 04:25:54;;;;;;;;;;;16.20;81.60;;;;;;5048065;28;19917;-71
2022/05/27 04:28:19;;;;;;;;;;;16.20;81.60;;;;;;5058836;28;19928;-72
2022/05/27 04:30:45;;;;;;;;;;;16.10;81.90;;;;;;5067398;28;19924;-71
2022/05/27 04:33:11;;;;;;;;;;;16.10;81.50;;;;;;5065567;28;19944;-72
2022/05/27 04:35:36;;;;;;;;;;;16.20;81.50;;;;;;5049981;28;19919;-72
2022/05/27 04:38:02;;;;;;;;;;;16.10;81.70;;;;;;5057378;28;19948;-72
2022/05/27 04:40:27;;;;;;;;;;;16.10;81.70;;;;;;5048183;28;20023;-72
2022/05/27 04:42:53;;;;;;;;;;;16.10;81.70;;;;;;5049953;28;19916;-72
2022/05/27 04:45:20;;;;;;;;;;;16.10;81.80;;;;;;5050039;28;19916;-72
2022/05/27 04:47:46;;;;;;;;;;;16.10;81.80;;;;;;5065513;28;20320;-72
2022/05/27 04:50:11;;;;;;;;;;;16.10;81.90;;;;;;5050224;28;20449;-72
2022/05/27 04:52:37;;;;;;;;;;;16.10;81.90;;;;;;5056073;28;20008;-72
2022/05/27 04:55:07;;;;;;;;;;;16.10;82.00;;;;;;5062742;28;19920;-72
2022/05/27 04:57:37;;;;;;;;;;;16.10;82.00;;;;;;5067694;28;19916;-72
2022/05/27 05:00:05;;;;;;;;;;;16.00;81.90;;;;;;5060865;28;20004;-72
2022/05/27 05:02:30;;;;;;;;;;;16.00;82.00;;;;;;5047881;28;20391;-72
2022/05/27 05:04:56;;;;;;;;;;;16.00;82.00;;;;;;5060060;28;20004;-72
2022/05/27 05:07:22;;;;;;;;;;;16.00;82.20;;;;;;5067553;28;19917;-72
2022/05/27 05:09:48;;;;;;;;;;;16.00;81.90;;;;;;5057290;28;19912;-72
2022/05/27 05:12:14;;;;;;;;;;;16.00;82.20;;;;;;5049604;28;19920;-72
2022/05/27 05:14:40;;;;;;;;;;;16.00;82.20;;;;;;5065154;28;19926;-72
2022/05/27 05:17:05;;;;;;;;;;;16.00;82.40;;;;;;5067150;28;19920;-71
2022/05/27 05:19:31;;;;;;;;;;;16.00;82.30;;;;;;5064623;28;19912;-71
2022/05/27 05:21:56;;;;;;;;;;;16.00;82.30;;;;;;5048360;28;19928;-71
2022/05/27 05:24:22;;;;;;;;;;;16.00;82.70;;;;;;5055379;28;19916;-71
2022/05/27 05:26:48;;;;;;;;;;;16.00;82.30;;;;;;5056967;28;19921;-72
2022/05/27 05:29:13;;;;;;;;;;;16.00;82.20;;;;;;5027673;28;19913;-72
2022/05/27 05:31:38;;;;;;;;;;;16.00;82.10;;;;;;5066286;28;19918;-72
2022/05/27 05:34:04;;;;;;;;;;;16.00;82.40;;;;;;5067179;28;19916;-72
2022/05/27 05:36:30;;;;;;;;;;;16.00;82.30;;;;;;5064170;28;20002;-72
2022/05/27 05:38:56;;;;;;;;;;;16.00;82.20;;;;;;5041523;28;19912;-72
2022/05/27 05:41:29;;;;;;;;;;;16.00;82.60;;;;;;5059826;28;19923;-71
2022/05/27 05:43:55;;;;;;;;;;;16.00;82.60;;;;;;5049109;28;20622;-72
2022/05/27 05:46:21;;;;;;;;;;;16.00;82.70;;;;;;5064236;28;19982;-72
2022/05/27 05:48:46;;;;;;;;;;;16.00;82.90;;;;;;5048632;28;19924;-72
2022/05/27 05:51:12;;;;;;;;;;;16.00;82.70;;;;;;5064388;28;19909;-72
2022/05/27 05:53:37;;;;;;;;;;;16.10;82.80;;;;;;5052143;28;19982;-72
2022/05/27 05:56:03;;;;;;;;;;;16.00;82.40;;;;;;5051393;28;19912;-72
2022/05/27 05:58:28;;;;;;;;;;;16.10;82.60;;;;;;5031373;28;19924;-72
2022/05/27 06:00:54;;;;;;;;;;;16.10;82.80;;;;;;5039732;28;19916;-72
2022/05/27 06:03:19;;;;;;;;;;;16.10;82.50;;;;;;5037993;28;20027;-72
2022/05/27 06:05:45;;;;;;;;;;;16.10;82.70;;;;;;5009307;28;19909;-72
2022/05/27 06:08:10;;;;;;;;;;;16.10;82.60;;;;;;5037977;28;19928;-72
2022/05/27 06:10:36;;;;;;;;;;;16.10;82.90;;;;;;5044340;28;19912;-72
2022/05/27 06:13:02;;;;;;;;;;;16.10;82.80;;;;;;5037325;28;19913;-73
2022/05/27 06:15:27;;;;;;;;;;;16.20;82.90;;;;;;5044040;28;19917;-72
2022/05/27 06:17:53;;;;;;;;;;;16.20;82.90;;;;;;5035404;28;20358;-72
2022/05/27 06:20:18;;;;;;;;;;;16.20;82.80;;;;;;5037992;28;19940;-72
2022/05/27 06:22:44;;;;;;;;;;;16.20;82.70;;;;;;5030995;28;19925;-72
2022/05/27 06:25:10;;;;;;;;;;;16.20;82.60;;;;;;5043847;28;19923;-72
2022/05/27 06:27:36;;;;;;;;;;;16.30;82.90;;;;;;5039049;28;19931;-72
2022/05/27 06:35:40;;;;;;;;;;;16.30;83.10;;;;;;5017304;28;20389;-72
2022/05/27 06:38:05;;;;;;;;;;;16.30;83.20;;;;;;5031736;28;19966;-72
2022/05/27 06:40:31;;;;;;;;;;;16.30;83.10;;;;;;5044771;28;19917;-72
2022/05/27 06:42:56;;;;;;;;;;;16.30;82.80;;;;;;5039123;28;19924;-72
2022/05/27 06:45:22;;;;;;;;;;;16.30;82.90;;;;;;5034504;28;19969;-72
2022/05/27 06:47:47;;;;;;;;;;;16.40;82.70;;;;;;5035069;28;19971;-72
2022/05/27 06:50:13;;;;;;;;;;;16.40;82.70;;;;;;5034284;28;19913;-72
2022/05/27 06:52:40;;;;;;;;;;;16.40;82.90;;;;;;5036557;28;19913;-72
2022/05/27 06:55:07;;;;;;;;;;;16.40;82.70;;;;;;5023469;28;19947;-72
2022/05/27 06:57:33;;;;;;;;;;;16.40;82.90;;;;;;5043876;28;19913;-72
2022/05/27 07:00:00;;;;;;;;;;;16.40;82.90;;;;;;5039241;28;19959;-72
2022/05/27 07:02:25;;;;;;;;;;;16.50;83.10;;;;;;5041213;28;19927;-72
2022/05/27 07:04:51;;;;;;;;;;;16.50;82.80;;;;;;5036814;28;19917;-72
2022/05/27 07:07:17;;;;;;;;;;;16.50;83.10;;;;;;5042915;28;19913;-72
2022/05/27 07:09:42;;;;;;;;;;;16.60;82.90;;;;;;5031771;28;19943;-72
2022/05/27 07:12:09;;;;;;;;;;;16.60;83.10;;;;;;5031909;28;19917;-72
2022/05/27 07:14:36;;;;;;;;;;;16.60;83.20;;;;;;5036507;28;20670;-72
2022/05/27 07:17:02;;;;;;;;;;;16.60;83.00;;;;;;5040768;28;19916;-72
2022/05/27 07:19:27;;;;;;;;;;;16.60;82.80;;;;;;5038388;28;19917;-72
2022/05/27 07:21:56;;;;;;;;;;;16.70;82.80;;;;;;5033853;28;19924;-72
2022/05/27 07:24:22;;;;;;;;;;;16.70;83.20;;;;;;5035338;28;19995;-72
2022/05/27 07:26:48;;;;;;;;;;;16.70;82.80;;;;;;5035138;28;19924;-73
2022/05/27 07:29:14;;;;;;;;;;;16.70;82.70;;;;;;5024463;28;19925;-72
2022/05/27 07:31:40;;;;;;;;;;;16.80;82.60;;;;;;5031799;28;20003;-73
2022/05/27 07:34:06;;;;;;;;;;;16.80;82.70;;;;;;5031764;28;19917;-73
2022/05/27 07:36:31;;;;;;;;;;;16.90;82.90;;;;;;5038748;28;19987;-72
2022/05/27 07:38:57;;;;;;;;;;;16.90;83.00;;;;;;5042008;28;20003;-73
2022/05/27 07:41:23;;;;;;;;;;;16.90;82.40;;;;;;5060631;28;19920;-73
2022/05/27 07:43:49;;;;;;;;;;;16.90;82.50;;;;;;5064797;28;19916;-72
2022/05/27 07:46:15;;;;;;;;;;;17.00;82.20;;;;;;5062124;28;19921;-72
2022/05/27 07:48:41;;;;;;;;;;;17.00;82.40;;;;;;5064932;28;19999;-73
2022/05/27 07:51:07;;;;;;;;;;;17.00;82.40;;;;;;5062404;28;20035;-74
2022/05/27 07:53:34;;;;;;;;;;;17.00;82.00;;;;;;5051280;28;19913;-73
2022/05/27 07:56:01;;;;;;;;;;;17.10;82.00;;;;;;5052185;28;19920;-73
2022/05/27 07:58:27;;;;;;;;;;;17.10;81.60;;;;;;5064980;28;20494;-72
2022/05/27 08:00:52;;;;;;;;;;;17.20;81.90;;;;;;5062185;28;19928;-73
2022/05/27 08:03:19;;;;;;;;;;;17.20;81.80;;;;;;5030891;28;19909;-72
2022/05/27 08:05:44;;;;;;;;;;;17.20;81.80;;;;;;5031739;28;19969;-73
2022/05/27 08:08:10;;;;;;;;;;;17.30;81.50;;;;;;5058480;28;19913;-73
2022/05/27 08:10:36;;;;;;;;;;;17.20;81.40;;;;;;5043986;28;19940;-73
2022/05/27 08:13:02;;;;;;;;;;;17.20;81.40;;;;;;5065160;28;20274;-73
2022/05/27 08:15:27;;;;;;;;;;;17.30;81.40;;;;;;5064367;28;19920;-73
2022/05/27 08:17:53;;;;;;;;;;;17.40;81.30;;;;;;5061332;28;19916;-73
2022/05/27 08:20:21;;;;;;;;;;;17.40;81.20;;;;;;5064326;28;20014;-72
2022/05/27 08:22:47;;;;;;;;;;;17.40;81.20;;;;;;5044091;28;19955;-73
2022/05/27 08:25:13;;;;;;;;;;;17.40;81.00;;;;;;5064288;28;19913;-73
2022/05/27 08:27:39;;;;;;;;;;;17.50;80.80;;;;;;5061273;28;19927;-73
2022/05/27 08:30:06;;;;;;;;;;;17.60;80.80;;;;;;5064578;28;19920;-73
2022/05/27 08:32:32;;;;;;;;;;;17.50;80.60;;;;;;5064621;28;19917;-73
2022/05/27 08:38:01;;;;;;;;;;;17.60;80.60;;;;;;5054413;28;19923;-73
2022/05/27 08:40:35;;;;;;;;;;;17.50;80.70;;;;;;5038596;28;19913;-73
2022/05/27 08:43:05;;;;;;;;;;;17.50;80.80;;;;;;5037675;28;19916;-73
2022/05/27 08:45:32;;;;;;;;;;;17.60;80.80;;;;;;5046626;28;19913;-73
2022/05/27 08:48:00;;;;;;;;;;;17.60;80.90;;;;;;5054261;28;19961;-73
2022/05/27 08:50:32;;;;;;;;;;;17.50;80.90;;;;;;5065757;28;19916;-73
2022/05/27 08:53:06;;;;;;;;;;;17.50;80.90;;;;;;5064035;28;19923;-73
2022/05/27 09:01:08;;;;;;;;;;;17.60;80.70;;;;;;5060356;28;19970;-74
2022/05/27 09:03:37;;;;;;;;;;;17.70;80.40;;;;;;5055224;28;19920;-74
2022/05/27 09:06:04;;;;;;;;;;;17.70;80.20;;;;;;5038221;28;19996;-73
2022/05/27 09:08:30;;;;;;;;;;;17.80;80.10;;;;;;5047041;28;19955;-73
2022/05/27 09:11:16;;;;;;;;;;;17.80;79.90;;;;;;5047650;28;20592;-73
2022/05/27 09:13:41;;;;;;;;;;;17.90;79.70;;;;;;5058085;28;19927;-73
2022/05/27 09:16:13;;;;;;;;;;;17.90;79.60;;;;;;5067330;28;19912;-73
2022/05/27 09:19:00;;;;;;;;;;;18.00;79.30;;;;;;5064837;28;19920;-73
2022/05/27 09:21:44;;;;;;;;;;;18.00;78.60;;;;;;5066615;28;19935;-73
2022/05/27 09:24:12;;;;;;;;;;;18.10;78.60;;;;;;5064541;28;20339;-73
2022/05/27 09:26:44;;;;;;;;;;;18.10;78.50;;;;;;5066555;28;19912;-73
2022/05/27 09:29:09;;;;;;;;;;;18.10;78.30;;;;;;5064644;28;20010;-73
2022/05/27 09:31:41;;;;;;;;;;;18.10;78.20;;;;;;5067000;28;20473;-74
2022/05/27 09:34:08;;;;;;;;;;;18.10;78.20;;;;;;5064606;28;20673;-73
2022/05/27 09:36:36;;;;;;;;;;;18.10;78.20;;;;;;5066864;28;20241;-73
2022/05/27 09:39:04;;;;;;;;;;;18.20;77.50;;;;;;5040434;28;19913;-74
2022/05/27 09:41:39;;;;;;;;;;;18.30;77.40;;;;;;5066777;28;19921;-74
2022/05/27 09:44:10;;;;;;;;;;;18.40;77.20;;;;;;5061846;28;19912;-73
2022/05/27 09:46:35;;;;;;;;;;;18.50;76.10;;;;;;5030001;28;19958;-73
2022/05/27 09:49:01;;;;;;;;;;;18.50;76.00;;;;;;5037165;28;19921;-73
2022/05/27 09:51:29;;;;;;;;;;;18.50;76.30;;;;;;5064119;28;19925;-73
2022/05/27 09:53:57;;;;;;;;;;;18.60;75.90;;;;;;5050966;28;19913;-73
2022/05/27 09:56:35;;;;;;;;;;;18.50;75.90;;;;;;5010644;28;19921;-73
2022/05/27 09:59:18;;;;;;;;;;;18.60;75.90;;;;;;5040277;28;19920;-73
2022/05/27 10:01:43;;;;;;;;;;;18.60;75.50;;;;;;5044154;28;19927;-74
2022/05/27 10:04:12;;;;;;;;;;;18.60;76.00;;;;;;5051953;28;19908;-73
2022/05/27 10:06:38;;;;;;;;;;;18.50;76.10;;;;;;5054985;28;20332;-73
2022/05/27 10:09:04;;;;;;;;;;;18.40;75.90;;;;;;5041431;28;19995;-73
2022/05/27 10:11:34;;;;;;;;;;;18.40;76.00;;;;;;5045685;28;19916;-73
2022/05/27 10:14:12;;;;;;;;;;;18.50;75.90;;;;;;5031119;28;19948;-73
2022/05/27 10:16:39;;;;;;;;;;;18.60;75.00;;;;;;5047408;28;20057;-74
2022/05/27 10:19:05;;;;;;;;;;;18.60;74.60;;;;;;5065402;28;19916;-73
2022/05/27 10:21:31;;;;;;;;;;;18.70;73.80;;;;;;5052807;28;20000;-74
2022/05/27 10:24:11;;;;;;;;;;;18.80;73.60;;;;;;5051981;28;20019;-74
2022/05/27 10:26:37;;;;;;;;;;;18.70;73.30;;;;;;5051282;28;19963;-73
2022/05/27 10:29:08;;;;;;;;;;;18.70;74.20;;;;;;5066025;28;20016;-73
2022/05/27 10:31:34;;;;;;;;;;;18.70;74.30;;;;;;5053576;28;19916;-74
2022/05/27 10:34:00;;;;;;;;;;;18.70;74.00;;;;;;5066328;28;19989;-73
2022/05/27 10:36:37;;;;;;;;;;;18.70;73.50;;;;;;5063478;28;19991;-74
2022/05/27 10:39:05;;;;;;;;;;;18.80;73.80;;;;;;5039482;28;19944;-73
2022/05/27 10:41:36;;;;;;;;;;;18.80;73.50;;;;;;5027941;28;19925;-73
2022/05/27 10:44:08;;;;;;;;;;;19.00;73.10;;;;;;5060342;28;20404;-74
2022/05/27 10:46:38;;;;;;;;;;;19.10;73.20;;;;;;5044668;28;20446;-73
2022/05/27 10:49:23;;;;;;;;;;;19.00;72.20;;;;;;5059424;28;20434;-74
2022/05/27 10:51:52;;;;;;;;;;;19.10;72.20;;;;;;5042422;28;20322;-73
2022/05/27 10:54:33;;;;;;;;;;;19.30;72.00;;;;;;5043053;28;19921;-73
2022/05/27 11:03:20;;;;;;;;;;;19.30;72.40;;;;;;5026733;28;19963;-74
2022/05/27 11:05:52;;;;;;;;;;;19.40;71.80;;;;;;5023890;28;19935;-74
2022/05/27 11:08:21;;;;;;;;;;;19.30;71.80;;;;;;5033852;28;19933;-73
2022/05/27 11:11:05;;;;;;;;;;;19.30;71.80;;;;;;5024930;28;19913;-74
2022/05/27 11:16:24;;;;;;;;;;;19.30;71.70;;;;;;5059692;28;19939;-73
2022/05/27 11:18:51;;;;;;;;;;;19.30;71.20;;;;;;5061725;28;19912;-74
2022/05/27 11:21:19;;;;;;;;;;;19.40;71.60;;;;;;5064326;28;19924;-73
2022/05/27 11:23:53;;;;;;;;;;;19.50;70.70;;;;;;5061745;28;20010;-74
2022/05/27 11:26:38;;;;;;;;;;;19.50;71.00;;;;;;5064258;28;19909;-73
2022/05/27 11:29:24;;;;;;;;;;;19.40;70.60;;;;;;5062111;28;19920;-73
2022/05/27 11:31:56;;;;;;;;;;;19.40;70.60;;;;;;5064677;28;19935;-74
2022/05/27 11:34:22;;;;;;;;;;;19.30;71.30;;;;;;5061997;28;19966;-73
2022/05/27 11:37:05;;;;;;;;;;;19.40;71.50;;;;;;5063989;28;19955;-73
2022/05/27 11:39:55;;;;;;;;;;;19.50;71.10;;;;;;5043868;28;19916;-74
2022/05/27 11:42:43;;;;;;;;;;;19.70;70.40;;;;;;5064531;28;19938;-73
2022/05/27 11:45:12;;;;;;;;;;;19.80;70.10;;;;;;5060966;28;19916;-73
2022/05/27 11:47:37;;;;;;;;;;;19.90;69.40;;;;;;5064197;28;19912;-73
2022/05/27 11:50:14;;;;;;;;;;;19.90;69.10;;;;;;5060813;28;20588;-73
2022/05/27 11:52:42;;;;;;;;;;;20.00;68.50;;;;;;5057995;28;20606;-73
2022/05/27 11:55:27;;;;;;;;;;;20.00;69.00;;;;;;5056125;28;19916;-73
2022/05/27 11:58:11;;;;;;;;;;;20.00;68.20;;;;;;5041104;28;19913;-73
2022/05/27 12:00:40;;;;;;;;;;;20.10;69.10;;;;;;5045875;28;20642;-73
2022/05/27 12:03:09;;;;;;;;;;;20.20;68.60;;;;;;5043985;28;19947;-74
2022/05/27 12:05:50;;;;;;;;;;;20.30;67.80;;;;;;5052579;28;19931;-73
2022/05/27 12:08:35;;;;;;;;;;;20.40;68.30;;;;;;5060892;28;19917;-73
2022/05/27 12:11:07;;;;;;;;;;;20.50;68.30;;;;;;5049252;28;19923;-73
2022/05/27 12:13:46;;;;;;;;;;;20.50;68.80;;;;;;5067406;28;20678;-73
2022/05/27 12:16:23;;;;;;;;;;;20.60;67.10;;;;;;5065510;28;19950;-73
2022/05/27 12:18:55;;;;;;;;;;;20.70;66.60;;;;;;5067424;28;19958;-73
2022/05/27 12:21:25;;;;;;;;;;;20.80;66.80;;;;;;5047067;28;19988;-74
2022/05/27 12:24:03;;;;;;;;;;;20.80;67.00;;;;;;5051763;28;19912;-73
2022/05/27 12:26:31;;;;;;;;;;;20.90;66.80;;;;;;5055145;28;19919;-74
2022/05/27 12:28:58;;;;;;;;;;;20.80;67.40;;;;;;5067091;28;19916;-73
2022/05/27 12:31:24;;;;;;;;;;;20.80;66.90;;;;;;5049303;28;19928;-73
2022/05/27 12:33:49;;;;;;;;;;;20.70;67.50;;;;;;5045770;28;19917;-74
2022/05/27 12:36:21;;;;;;;;;;;20.80;67.00;;;;;;5048634;28;19921;-73
2022/05/27 12:38:48;;;;;;;;;;;20.70;67.50;;;;;;5042167;28;19919;-73
2022/05/27 12:41:30;;;;;;;;;;;20.80;66.80;;;;;;5048453;28;19925;-74
2022/05/27 12:43:55;;;;;;;;;;;20.70;66.40;;;;;;5056899;28;19983;-74
2022/05/27 12:46:26;;;;;;;;;;;20.80;64.30;;;;;;5047576;28;19920;-74
2022/05/27 12:48:55;;;;;;;;;;;20.70;65.30;;;;;;5067435;28;20321;-74
2022/05/27 12:51:20;;;;;;;;;;;20.70;67.00;;;;;;5051831;28;20003;-74
2022/05/27 12:53:46;;;;;;;;;;;20.80;66.60;;;;;;5051596;28;19913;-74
2022/05/27 13:02:13;;;;;;;;;;;20.90;66.50;;;;;;5049915;28;20419;-74
2022/05/27 13:04:46;;;;;;;;;;;20.90;66.50;;;;;;5067584;28;19986;-73
2022/05/27 13:07:12;;;;;;;;;;;21.00;66.10;;;;;;5053361;28;19924;-73
2022/05/27 13:09:41;;;;;;;;;;;21.00;65.90;;;;;;5046488;28;20625;-74
2022/05/27 13:12:06;;;;;;;;;;;21.00;65.60;;;;;;5045043;28;19913;-74
2022/05/27 13:14:49;;;;;;;;;;;21.10;65.60;;;;;;5067139;28;19939;-73
2022/05/27 13:17:20;;;;;;;;;;;21.20;65.40;;;;;;5064715;28;19961;-74
2022/05/27 13:19:58;;;;;;;;;;;21.20;64.60;;;;;;5035625;28;20013;-73
2022/05/27 13:22:30;;;;;;;;;;;21.30;64.90;;;;;;5047380;28;19951;-73
2022/05/27 13:25:15;;;;;;;;;;;21.40;65.40;;;;;;5057884;28;19962;-73
2022/05/27 13:27:41;;;;;;;;;;;21.50;64.20;;;;;;5046621;28;19966;-73
2022/05/27 13:30:08;;;;;;;;;;;21.60;64.60;;;;;;5027238;28;20392;-74
2022/05/27 13:32:36;;;;;;;;;;;21.60;64.40;;;;;;5026960;28;20010;-74
2022/05/27 13:35:08;;;;;;;;;;;21.70;64.30;;;;;;5062275;28;19975;-73
2022/05/27 13:37:40;;;;;;;;;;;21.70;63.60;;;;;;5057671;28;19917;-73
2022/05/27 13:40:10;;;;;;;;;;;21.70;63.40;;;;;;5044484;28;19921;-73
2022/05/27 13:42:46;;;;;;;;;;;21.80;62.50;;;;;;5047169;28;19927;-74
2022/05/27 13:45:12;;;;;;;;;;;21.80;61.60;;;;;;5046731;28;19920;-73
2022/05/27 13:47:48;;;;;;;;;;;21.90;62.10;;;;;;5046747;28;19936;-73
2022/05/27 13:50:32;;;;;;;;;;;22.00;61.10;;;;;;5034140;28;19912;-73
2022/05/27 13:53:11;;;;;;;;;;;22.10;60.50;;;;;;5035332;28;19982;-73
2022/05/27 13:55:37;;;;;;;;;;;22.00;61.30;;;;;;5060457;28;19916;-73
2022/05/27 13:58:03;;;;;;;;;;;22.00;61.90;;;;;;5066327;28;19969;-74
2022/05/27 14:00:34;;;;;;;;;;;22.10;61.40;;;;;;5063679;28;19981;-74
2022/05/27 14:03:00;;;;;;;;;;;22.10;61.80;;;;;;5047844;28;20286;-74
2022/05/27 14:05:26;;;;;;;;;;;22.10;61.70;;;;;;5063445;28;19963;-74
2022/05/27 14:07:55;;;;;;;;;;;22.10;62.40;;;;;;5062809;28;20453;-74
2022/05/27 14:10:28;;;;;;;;;;;22.10;60.60;;;;;;5053338;28;19913;-74
2022/05/27 14:12:55;;;;;;;;;;;22.20;61.10;;;;;;5065205;28;19991;-74
2022/05/27 14:15:24;;;;;;;;;;;22.10;60.40;;;;;;5063760;28;19920;-73
2022/05/27 14:17:50;;;;;;;;;;;22.00;61.00;;;;;;5066489;28;19926;-73
2022/05/27 14:23:36;;;;;;;;;;;22.00;60.70;;;;;;4963902;28;19929;-73
2022/05/27 14:26:04;;;;;;;;;;;22.10;61.50;;;;;;5053879;28;19912;-73
2022/05/27 14:28:34;;;;;;;;;;;22.20;59.40;;;;;;5064658;28;20284;-73
2022/05/27 14:31:21;;;;;;;;;;;22.40;59.10;;;;;;5063454;28;20522;-74
2022/05/27 14:33:58;;;;;;;;;;;22.50;58.90;;;;;;5047709;28;19912;-73
2022/05/27 14:36:27;;;;;;;;;;;22.70;58.10;;;;;;5063247;28;19924;-73
2022/05/27 14:38:54;;;;;;;;;;;22.80;57.50;;;;;;5041479;28;19988;-73
2022/05/27 14:41:24;;;;;;;;;;;22.90;57.20;;;;;;5050905;28;19920;-74
2022/05/27 14:43:51;;;;;;;;;;;22.90;57.30;;;;;;5051648;28;19920;-73
2022/05/27 14:46:19;;;;;;;;;;;22.80;57.50;;;;;;5030644;28;19955;-74
2022/05/27 14:48:46;;;;;;;;;;;22.70;58.00;;;;;;5049557;28;19917;-73
2022/05/27 14:51:14;;;;;;;;;;;22.70;58.50;;;;;;5046591;28;20329;-73
2022/05/27 14:53:40;;;;;;;;;;;22.80;57.50;;;;;;5049777;28;20520;-74
2022/05/27 14:56:05;;;;;;;;;;;22.90;57.20;;;;;;5044477;28;19974;-74
2022/05/27 14:58:33;;;;;;;;;;;23.10;56.20;;;;;;5065391;28;19913;-74
2022/05/27 15:00:59;;;;;;;;;;;23.30;56.50;;;;;;5065617;28;19940;-73
2022/05/27 15:03:26;;;;;;;;;;;23.10;56.00;;;;;;5062413;28;19978;-73
2022/05/27 15:05:52;;;;;;;;;;;23.20;56.60;;;;;;5065145;28;20304;-73